createdAt,value
2022-12-17T00:02:13.110Z,25.85
2022-12-17T00:05:24.091Z,27.13
2022-12-17T00:08:34.691Z,23.33
2022-12-17T00:11:45.250Z,20.58
2022-12-17T00:14:55.453Z,26.92
2022-12-17T00:18:06.468Z,25.10
2022-12-17T00:21:19.078Z,25.63
2022-12-17T00:24:29.276Z,23.40
2022-12-17T00:27:39.526Z,26.08
2022-12-17T00:30:49.855Z,24.73
2022-12-17T00:34:00.545Z,24.85
2022-12-17T00:37:10.516Z,28.80
2022-12-17T00:40:21.049Z,24.48
2022-12-17T00:43:33.328Z,27.17
2022-12-17T00:46:43.933Z,21.27
2022-12-17T00:49:56.166Z,24.38
2022-12-17T00:53:07.059Z,22.30
2022-12-17T00:56:17.292Z,22.55
2022-12-17T00:59:27.630Z,19.90
2022-12-17T01:02:38.002Z,23.38
2022-12-17T01:05:48.379Z,27.48
2022-12-17T01:08:58.683Z,28.30
2022-12-17T01:12:09.520Z,28.38
2022-12-17T01:15:19.667Z,21.48
2022-12-17T01:18:36.447Z,22.70
2022-12-17T01:21:46.870Z,23.52
2022-12-17T01:24:56.902Z,25.52
2022-12-17T01:28:08.897Z,22.35
2022-12-17T01:31:20.100Z,18.98
2022-12-17T01:34:30.567Z,21.40
2022-12-17T01:37:41.416Z,23.80
2022-12-17T01:40:51.730Z,24.92
2022-12-17T01:44:02.389Z,18.48
2022-12-17T01:47:20.013Z,18.45
2022-12-17T01:50:32.507Z,27.23
2022-12-17T01:53:50.209Z,29.38
2022-12-17T01:57:02.144Z,25.20
2022-12-17T02:00:18.166Z,23.33
2022-12-17T02:03:37.425Z,20.33
2022-12-17T02:06:52.306Z,17.05
2022-12-17T02:10:17.805Z,20.17
2022-12-17T02:13:39.751Z,20.13
2022-12-17T02:16:54.777Z,22.80
2022-12-17T02:20:10.786Z,21.15
2022-12-17T02:23:24.001Z,20.52
2022-12-17T02:26:53.960Z,21.05
2022-12-17T02:30:12.434Z,23.50
2022-12-17T02:33:23.304Z,24.02
2022-12-17T02:36:33.431Z,20.10
2022-12-17T02:39:43.694Z,20.55
2022-12-17T02:42:54.334Z,19.05
2022-12-17T02:46:05.148Z,26.67
2022-12-17T02:49:15.455Z,21.20
2022-12-17T02:52:29.516Z,17.55
2022-12-17T02:55:43.693Z,16.17
2022-12-17T02:58:53.908Z,19.88
2022-12-17T03:02:04.356Z,19.13
2022-12-17T03:05:42.802Z,16.83
2022-12-17T03:08:44.968Z,26.00
2022-12-17T03:11:55.369Z,19.08
2022-12-17T03:15:19.229Z,23.92
2022-12-17T03:18:29.850Z,21.25
2022-12-17T03:21:40.068Z,22.15
2022-12-17T03:24:50.319Z,29.02
2022-12-17T03:28:00.407Z,21.92
2022-12-17T03:31:10.816Z,25.63
2022-12-17T03:34:21.751Z,20.92
2022-12-17T03:37:32.354Z,30.40
2022-12-17T03:40:42.567Z,20.23
2022-12-17T03:43:52.690Z,22.77
2022-12-17T03:47:03.131Z,20.17
2022-12-17T03:50:13.371Z,18.50
2022-12-17T03:53:23.651Z,26.48
2022-12-17T03:56:33.888Z,24.50
2022-12-17T03:59:44.138Z,25.35
2022-12-17T04:02:54.489Z,32.42
2022-12-17T04:06:04.933Z,27.80
2022-12-17T04:09:15.267Z,27.02
2022-12-17T04:12:25.479Z,33.05
2022-12-17T04:15:35.978Z,28.27
2022-12-17T04:18:46.180Z,23.67
2022-12-17T04:21:56.244Z,30.73
2022-12-17T04:25:06.508Z,30.42
2022-12-17T04:28:16.675Z,31.30
2022-12-17T04:31:26.927Z,29.02
2022-12-17T04:34:37.194Z,30.65
2022-12-17T04:37:47.449Z,30.05
2022-12-17T04:40:57.639Z,25.17
2022-12-17T04:44:08.008Z,34.15
2022-12-17T04:47:18.361Z,26.33
2022-12-17T04:50:28.460Z,33.63
2022-12-17T04:53:39.048Z,37.28
2022-12-17T04:56:49.483Z,37.85
2022-12-17T04:59:59.676Z,39.47
2022-12-17T05:03:09.936Z,32.85
2022-12-17T05:06:20.850Z,33.28
2022-12-17T05:09:30.944Z,36.35
2022-12-17T05:12:41.055Z,29.25
2022-12-17T05:15:53.269Z,35.83
2022-12-17T05:19:03.752Z,37.10
2022-12-17T05:22:14.051Z,32.00
2022-12-17T05:25:24.569Z,29.63
2022-12-17T05:28:34.744Z,30.48
2022-12-17T05:31:45.129Z,27.58
2022-12-17T05:34:56.050Z,31.50
2022-12-17T05:38:07.370Z,23.77
2022-12-17T05:41:18.591Z,30.08
2022-12-17T05:44:28.625Z,36.53
2022-12-17T05:47:38.879Z,31.52
2022-12-17T05:50:49.179Z,27.20
2022-12-17T05:53:59.306Z,32.70
2022-12-17T05:57:09.981Z,27.48
2022-12-17T06:00:20.148Z,32.33
2022-12-17T06:03:30.484Z,31.92
2022-12-17T06:06:40.819Z,39.63
2022-12-17T06:09:51.509Z,28.85
2022-12-17T06:13:01.621Z,35.00
2022-12-17T06:16:12.216Z,32.65
2022-12-17T06:19:22.355Z,33.55
2022-12-17T06:22:32.545Z,36.45
2022-12-17T06:25:42.722Z,27.70
2022-12-17T06:28:52.884Z,39.10
2022-12-17T06:32:03.024Z,39.75
2022-12-17T06:35:13.123Z,34.03
2022-12-17T06:38:25.458Z,34.05
2022-12-17T06:41:35.476Z,29.90
2022-12-17T06:44:48.702Z,34.53
2022-12-17T06:47:58.896Z,33.03
2022-12-17T06:51:09.543Z,36.55
2022-12-17T06:54:19.558Z,35.65
2022-12-17T06:57:29.838Z,35.20
2022-12-17T07:00:40.103Z,41.83
2022-12-17T07:03:50.002Z,35.92
2022-12-17T07:07:00.107Z,38.72
2022-12-17T07:10:14.120Z,30.50
2022-12-17T07:13:26.222Z,34.70
2022-12-17T07:16:36.440Z,31.92
2022-12-17T07:19:48.492Z,32.67
2022-12-17T07:22:58.840Z,37.58
2022-12-17T07:26:08.946Z,36.33
2022-12-17T07:29:19.695Z,34.85
2022-12-17T07:32:29.937Z,41.78
2022-12-17T07:35:40.224Z,42.35
2022-12-17T07:38:50.564Z,37.20
2022-12-17T07:42:01.079Z,34.65
2022-12-17T07:45:11.335Z,37.33
2022-12-17T07:48:21.892Z,32.90
2022-12-17T07:51:32.070Z,39.65
2022-12-17T07:54:42.094Z,34.50
2022-12-17T07:57:52.501Z,30.67
2022-12-17T08:01:22.828Z,38.47
2022-12-17T08:04:33.065Z,43.95
2022-12-17T08:07:44.112Z,34.20
2022-12-17T08:10:54.684Z,36.38
2022-12-17T08:14:04.754Z,37.25
2022-12-17T08:17:15.057Z,34.20
2022-12-17T08:20:26.039Z,35.53
2022-12-17T08:23:37.592Z,37.40
2022-12-17T08:26:48.509Z,32.08
2022-12-17T08:29:58.912Z,38.25
2022-12-17T08:33:09.252Z,31.58
2022-12-17T08:36:19.523Z,38.35
2022-12-17T08:39:29.806Z,36.22
2022-12-17T08:42:40.129Z,36.72
2022-12-17T08:45:50.608Z,35.05
2022-12-17T08:49:01.673Z,34.83
2022-12-17T08:52:12.434Z,36.30
2022-12-17T08:55:26.630Z,35.17
2022-12-17T08:58:36.885Z,31.92
2022-12-17T09:01:47.350Z,30.88
2022-12-17T09:04:58.325Z,35.17
2022-12-17T09:08:16.566Z,29.05
2022-12-17T09:11:27.071Z,38.28
2022-12-17T09:14:37.426Z,36.58
2022-12-17T09:17:47.979Z,40.38
2022-12-17T09:20:58.434Z,42.58
2022-12-17T09:24:08.682Z,40.83
2022-12-17T09:27:19.378Z,31.92
2022-12-17T09:30:30.411Z,35.90
2022-12-17T09:33:41.274Z,39.60
2022-12-17T09:36:52.110Z,41.38
2022-12-17T09:40:23.276Z,34.00
2022-12-17T09:43:54.021Z,36.47
2022-12-17T09:47:36.617Z,37.97
2022-12-17T09:50:46.873Z,36.42
2022-12-17T09:54:11.583Z,38.38
2022-12-17T09:57:23.281Z,42.40
2022-12-17T10:00:42.170Z,42.58
2022-12-17T10:03:54.887Z,39.45
2022-12-17T10:07:07.736Z,35.63
2022-12-17T10:10:29.248Z,36.03
2022-12-17T10:13:42.154Z,37.35
2022-12-17T10:17:00.621Z,36.22
2022-12-17T10:20:14.009Z,41.40
2022-12-17T10:23:25.789Z,45.08
2022-12-17T10:26:44.141Z,44.58
2022-12-17T10:29:54.491Z,42.00
2022-12-17T10:33:17.163Z,41.55
2022-12-17T10:36:43.148Z,38.95
2022-12-17T10:39:54.051Z,42.88
2022-12-17T10:43:04.668Z,39.25
2022-12-17T10:46:16.674Z,43.75
2022-12-17T10:49:42.200Z,38.33
2022-12-17T10:52:52.619Z,43.42
2022-12-17T10:56:12.267Z,40.00
2022-12-17T10:59:32.158Z,44.35
2022-12-17T11:02:48.660Z,43.53
2022-12-17T11:06:19.597Z,44.33
2022-12-17T11:09:57.232Z,45.10
2022-12-17T11:13:13.482Z,41.50
2022-12-17T11:16:35.680Z,44.38
2022-12-17T11:20:05.199Z,45.33
2022-12-17T11:23:21.018Z,41.65
2022-12-17T11:26:37.486Z,43.95
2022-12-17T11:29:48.457Z,49.50
2022-12-17T11:33:16.498Z,42.60
2022-12-17T11:36:43.280Z,39.97
2022-12-17T11:40:10.066Z,42.13
2022-12-17T11:43:30.681Z,45.80
2022-12-17T11:47:08.339Z,50.85
2022-12-17T11:50:42.259Z,40.90
2022-12-17T11:54:11.139Z,53.00
2022-12-17T11:57:44.967Z,38.88
2022-12-17T12:01:14.018Z,45.38
2022-12-17T12:04:47.435Z,45.70
2022-12-17T12:08:16.993Z,47.03
2022-12-17T12:11:52.515Z,49.22
2022-12-17T12:15:15.460Z,44.78
2022-12-17T12:18:39.819Z,45.65
2022-12-17T12:22:20.340Z,45.97
2022-12-17T12:25:30.693Z,45.90
2022-12-17T12:28:56.455Z,47.67
2022-12-17T12:32:21.003Z,40.55
2022-12-17T12:35:40.140Z,44.58
2022-12-17T12:38:57.891Z,46.50
2022-12-17T12:42:14.198Z,45.58
2022-12-17T12:45:50.580Z,48.60
2022-12-17T12:49:09.883Z,42.10
2022-12-17T12:52:21.521Z,46.15
2022-12-17T12:55:31.920Z,52.40
2022-12-17T12:58:51.552Z,42.03
2022-12-17T13:02:02.937Z,43.80
2022-12-17T13:05:27.958Z,49.25
2022-12-17T13:08:20.880Z,46.72
2022-12-17T13:10:55.475Z,44.50
2022-12-17T13:13:35.192Z,42.97
2022-12-17T13:17:02.040Z,38.75
2022-12-17T13:19:42.151Z,40.40
2022-12-17T13:22:21.990Z,46.05
2022-12-17T13:25:23.801Z,44.40
2022-12-17T13:27:56.744Z,43.03
2022-12-17T13:30:37.834Z,47.35
2022-12-17T13:33:49.186Z,43.22
2022-12-17T13:37:07.498Z,43.13
2022-12-17T13:40:37.194Z,42.50
2022-12-17T13:43:33.977Z,47.15
2022-12-17T13:46:23.014Z,50.95
2022-12-17T13:49:19.466Z,48.95
2022-12-17T13:52:17.995Z,50.50
2022-12-17T13:54:53.456Z,49.15
2022-12-17T13:57:39.111Z,43.50
2022-12-17T14:00:31.447Z,45.53
2022-12-17T14:03:12.318Z,44.65
2022-12-17T14:05:51.346Z,52.50
2022-12-17T14:08:29.196Z,48.78
2022-12-17T14:11:22.320Z,38.70
2022-12-17T14:14:34.724Z,47.10
2022-12-17T14:17:21.710Z,45.30
2022-12-17T14:20:13.075Z,49.80
2022-12-17T14:23:03.296Z,44.65
2022-12-17T14:25:43.093Z,45.55
2022-12-17T14:28:35.030Z,46.20
2022-12-17T14:31:29.395Z,48.38
2022-12-17T14:34:08.532Z,46.05
2022-12-17T14:36:46.624Z,48.00
2022-12-17T14:39:30.550Z,48.47
2022-12-17T14:42:25.664Z,48.20
2022-12-17T14:45:14.354Z,45.90
2022-12-17T14:47:54.935Z,58.60
2022-12-17T14:50:33.661Z,47.22
2022-12-17T14:53:28.197Z,43.45
2022-12-17T14:56:01.379Z,39.88
2022-12-17T14:58:47.256Z,44.35
2022-12-17T15:01:20.516Z,47.88
2022-12-17T15:03:53.938Z,49.83
2022-12-17T15:06:28.406Z,50.45
2022-12-17T15:09:00.733Z,43.03
2022-12-17T15:11:35.666Z,58.78
2022-12-17T15:14:08.478Z,50.60
2022-12-17T15:16:44.309Z,55.42
2022-12-17T15:19:18.466Z,49.40
2022-12-17T15:21:53.705Z,48.38
2022-12-17T15:24:27.728Z,49.03
2022-12-17T15:27:01.707Z,48.35
2022-12-17T15:29:35.348Z,45.42
2022-12-17T15:32:17.556Z,44.22
2022-12-17T15:34:54.190Z,49.30
2022-12-17T15:37:30.165Z,46.67
2022-12-17T15:40:05.467Z,42.85
2022-12-17T15:43:04.707Z,41.65
2022-12-17T15:46:14.099Z,36.67
2022-12-17T15:48:50.392Z,50.53
2022-12-17T15:51:24.701Z,44.28
2022-12-17T15:53:58.365Z,44.65
2022-12-17T15:56:31.151Z,41.50
2022-12-17T15:59:04.058Z,46.13
2022-12-17T16:01:37.166Z,54.63
2022-12-17T16:04:16.739Z,44.40
2022-12-17T16:06:50.667Z,47.33
2022-12-17T16:09:27.136Z,44.88
2022-12-17T16:12:06.520Z,46.00
2022-12-17T16:14:39.118Z,45.20
2022-12-17T16:17:12.683Z,46.58
2022-12-17T16:19:46.480Z,50.13
2022-12-17T16:22:19.896Z,47.58
2022-12-17T16:24:52.852Z,42.58
2022-12-17T16:27:26.037Z,45.88
2022-12-17T16:29:58.647Z,51.88
2022-12-17T16:32:36.181Z,51.70
2022-12-17T16:35:09.598Z,48.60
2022-12-17T16:37:41.945Z,50.58
2022-12-17T16:40:14.336Z,41.70
2022-12-17T16:42:47.134Z,45.50
2022-12-17T16:45:19.738Z,46.75
2022-12-17T16:47:52.653Z,49.90
2022-12-17T16:50:29.799Z,48.97
2022-12-17T16:53:02.471Z,48.92
2022-12-17T16:55:46.934Z,47.65
2022-12-17T16:58:20.509Z,44.67
2022-12-17T17:01:00.421Z,45.30
2022-12-17T17:03:33.527Z,54.90
2022-12-17T17:06:10.651Z,50.03
2022-12-17T17:08:43.440Z,46.30
2022-12-17T17:11:21.683Z,47.65
2022-12-17T17:13:56.622Z,48.83
2022-12-17T17:16:30.729Z,44.38
2022-12-17T17:19:07.664Z,51.47
2022-12-17T17:21:43.071Z,42.80
2022-12-17T17:24:24.423Z,52.78
2022-12-17T17:26:57.753Z,51.17
2022-12-17T17:29:30.994Z,51.58
2022-12-17T17:32:11.594Z,49.38
2022-12-17T17:34:45.334Z,58.05
2022-12-17T17:37:20.973Z,58.33
2022-12-17T17:39:53.944Z,53.92
2022-12-17T17:42:27.100Z,53.05
2022-12-17T17:45:00.609Z,51.00
2022-12-17T17:47:37.318Z,47.38
2022-12-17T17:50:11.583Z,47.17
2022-12-17T17:52:44.887Z,49.10
2022-12-17T17:55:20.062Z,44.83
2022-12-17T17:57:54.781Z,42.53
2022-12-17T18:00:28.287Z,52.15
2022-12-17T18:03:02.262Z,44.15
2022-12-17T18:05:42.346Z,49.13
2022-12-17T18:08:15.874Z,44.13
2022-12-17T18:11:00.534Z,55.67
2022-12-17T18:13:53.790Z,58.03
2022-12-17T18:16:38.933Z,50.75
2022-12-17T18:19:16.613Z,45.65
2022-12-17T18:21:53.649Z,43.03
2022-12-17T18:24:26.562Z,49.95
2022-12-17T18:26:59.180Z,48.78
2022-12-17T18:29:33.984Z,50.60
2022-12-17T18:32:07.843Z,41.65
2022-12-17T18:34:44.849Z,49.00
2022-12-17T18:37:21.532Z,47.70
2022-12-17T18:39:56.141Z,45.40
2022-12-17T18:42:47.880Z,46.03
2022-12-17T18:45:42.151Z,47.30
2022-12-17T18:48:19.207Z,47.08
2022-12-17T18:50:52.549Z,51.45
2022-12-17T18:53:44.663Z,47.72
2022-12-17T18:56:37.864Z,46.30
2022-12-17T18:59:15.141Z,44.05
2022-12-17T19:01:52.387Z,52.42
2022-12-17T19:04:27.165Z,57.40
2022-12-17T19:07:01.289Z,58.08
2022-12-17T19:09:36.906Z,49.67
2022-12-17T19:12:17.119Z,46.65
2022-12-17T19:14:53.083Z,55.13
2022-12-17T19:17:27.777Z,54.88
2022-12-17T19:20:02.133Z,46.78
2022-12-17T19:22:42.505Z,54.42
2022-12-17T19:25:16.998Z,53.42
2022-12-17T19:27:51.445Z,51.95
2022-12-17T19:30:24.217Z,45.15
2022-12-17T19:32:57.709Z,46.75
2022-12-17T19:35:33.095Z,50.40
2022-12-17T19:38:07.483Z,47.70
2022-12-17T19:40:45.856Z,58.78
2022-12-17T19:43:24.020Z,47.75
2022-12-17T19:46:09.103Z,56.70
2022-12-17T19:48:48.982Z,45.15
2022-12-17T19:51:26.426Z,45.67
2022-12-17T19:54:08.373Z,53.63
2022-12-17T19:56:48.621Z,44.97
2022-12-17T19:59:24.302Z,43.85
2022-12-17T20:01:59.211Z,51.55
2022-12-17T20:04:35.177Z,43.72
2022-12-17T20:07:24.277Z,49.15
2022-12-17T20:09:57.531Z,45.80
2022-12-17T20:12:30.838Z,53.50
2022-12-17T20:15:04.952Z,50.85
2022-12-17T20:17:38.029Z,56.15
2022-12-17T20:20:11.125Z,53.90
2022-12-17T20:22:47.850Z,63.42
2022-12-17T20:25:24.025Z,43.85
2022-12-17T20:27:58.213Z,51.15
2022-12-17T20:30:32.029Z,57.58
2022-12-17T20:33:06.089Z,45.17
2022-12-17T20:35:40.831Z,46.45
2022-12-17T20:38:17.566Z,48.97
2022-12-17T20:40:51.491Z,45.65
2022-12-17T20:43:25.704Z,41.70
2022-12-17T20:46:03.380Z,58.13
2022-12-17T20:48:38.534Z,48.45
2022-12-17T20:51:23.141Z,44.85
2022-12-17T20:54:00.634Z,53.90
2022-12-17T20:56:36.047Z,47.65
2022-12-17T20:59:19.852Z,58.08
2022-12-17T21:01:57.750Z,55.00
2022-12-17T21:04:32.419Z,50.88
2022-12-17T21:07:14.092Z,48.15
2022-12-17T21:09:48.576Z,54.42
2022-12-17T21:12:46.364Z,48.97
2022-12-17T21:15:39.881Z,44.65
2022-12-17T21:18:21.145Z,50.10
2022-12-17T21:21:05.189Z,44.85
2022-12-17T21:23:44.572Z,58.65
2022-12-17T21:26:27.242Z,51.67
2022-12-17T21:29:12.095Z,52.05
2022-12-17T21:31:50.539Z,53.47
2022-12-17T21:34:25.905Z,53.30
2022-12-17T21:37:02.758Z,48.35
2022-12-17T21:39:36.509Z,59.50
2022-12-17T21:42:28.375Z,44.22
2022-12-17T21:45:20.353Z,46.10
2022-12-17T21:48:01.501Z,50.83
2022-12-17T21:50:42.479Z,51.28
2022-12-17T21:53:17.506Z,51.78
2022-12-17T21:55:51.577Z,49.20
2022-12-17T21:58:37.953Z,43.58
2022-12-17T22:01:18.994Z,45.42
2022-12-17T22:03:59.374Z,57.65
2022-12-17T22:06:47.694Z,41.33
2022-12-17T22:09:36.209Z,51.65
2022-12-17T22:12:35.184Z,52.90
2022-12-17T22:15:32.121Z,44.08
2022-12-17T22:18:12.225Z,47.70
2022-12-17T22:20:46.748Z,48.97
2022-12-17T22:23:35.295Z,48.10
2022-12-17T22:26:13.140Z,45.03
2022-12-17T22:28:50.392Z,54.40
2022-12-17T22:31:43.670Z,61.90
2022-12-17T22:35:22.501Z,45.70
2022-12-17T22:41:59.584Z,53.28
2022-12-17T22:44:09.893Z,53.83
2022-12-17T22:44:46.622Z,59.35
2022-12-17T22:46:26.884Z,55.45
2022-12-17T22:49:05.579Z,51.58
2022-12-17T22:51:40.693Z,57.38
2022-12-17T22:54:15.292Z,63.85
2022-12-17T22:57:35.266Z,54.03
2022-12-17T22:59:43.920Z,51.55
2022-12-17T23:02:18.843Z,51.50
2022-12-17T23:04:52.205Z,49.28
2022-12-17T23:07:31.389Z,52.97
2022-12-17T23:10:07.250Z,43.38
2022-12-17T23:12:58.979Z,55.10
2022-12-17T23:15:38.111Z,43.08
2022-12-17T23:18:18.599Z,53.88
2022-12-17T23:20:53.902Z,52.50
2022-12-17T23:23:26.504Z,52.90
2022-12-17T23:26:05.980Z,58.30
2022-12-17T23:28:43.756Z,43.85
2022-12-17T23:31:20.143Z,56.17
2022-12-17T23:33:53.455Z,52.25
2022-12-17T23:36:27.289Z,47.78
2022-12-17T23:39:01.238Z,48.90
2022-12-17T23:41:35.250Z,61.38
2022-12-17T23:44:08.828Z,47.63
2022-12-17T23:46:42.195Z,49.55
2022-12-17T23:49:18.141Z,42.63
2022-12-17T23:51:51.818Z,49.25
2022-12-17T23:54:25.487Z,41.03
2022-12-17T23:56:57.975Z,43.88
2022-12-17T23:59:33.037Z,50.47
